| Date | Time | Temp. (oF) | Dew Point (oF) | Rel. Hum. (%) | Press. (in.) | Wind Dir. | Wind Speed (mph) | Hourly Rainfall (in.) |
|
|---|---|---|---|---|---|---|---|---|---|
| 1 | 04/14 | 00:00 | 60 | 50 | 70 | 30.09 | S | 20 | 0.00 |
| 2 | 04/13 | 23:00 | 62 | 46 | 58 | 30.11 | S | 8 | 0.00 |
| 3 | 04/13 | 22:00 | 63 | 43 | 50 | 30.12 | S | 10 | 0.00 |
| 4 | 04/13 | 21:00 | 64 | 47 | 56 | 30.11 | S | 13 | 0.00 |
| 5 | 04/13 | 20:00 | 66 | 48 | 53 | 30.11 | SE | 10 | 0.00 |
| 6 | 04/13 | 19:00 | 68 | 49 | 51 | 30.09 | S | 6 | 0.00 |
| 7 | 04/13 | 18:00 | 70 | 50 | 51 | 30.08 | S | 16 | 0.00 |
| 8 | 04/13 | 17:00 | 72 | 53 | 52 | 30.10 | S | 10 | 0.00 |
| 9 | 04/13 | 16:00 | 72 | 53 | 52 | 30.12 | SSW | 12 | 0.00 |
| 10 | 04/13 | 15:00 | 70 | 51 | 52 | 30.16 | S | 12 | 0.00 |
| 11 | 04/13 | 14:00 | 70 | 49 | 48 | 30.18 | SSE | 11 | 0.00 |
| 12 | 04/13 | 13:00 | 68 | 49 | 52 | 30.21 | S | 10 | 0.00 |
| 13 | 04/13 | 12:00 | 65 | 47 | 54 | 30.24 | S | 7 | 0.00 |
| 14 | 04/13 | 11:00 | 61 | 44 | 54 | 30.27 | S | 6 | 0.00 |
| 15 | 04/13 | 10:00 | 55 | 41 | 61 | 30.30 | S | 8 | 0.00 |
| 16 | 04/13 | 09:00 | 54 | 39 | 59 | 30.31 | S | 5 | 0.00 |
| 17 | 04/13 | 08:00 | 48 | 39 | 71 | 30.32 | SSE | 3 | 0.00 |
| 18 | 04/13 | 07:00 | 47 | 38 | 72 | 30.31 | WNW | 4 | 0.00 |
| 19 | 04/13 | 06:00 | 48 | 39 | 71 | 30.27 | ESE | 0 | 0.00 |
| 20 | 04/13 | 05:00 | 47 | 37 | 70 | 30.27 | ENE | 0 | 0.00 |
| 21 | 04/13 | 04:00 | 48 | 37 | 67 | 30.27 | S | 1 | 0.00 |
| 22 | 04/13 | 03:00 | 48 | 37 | 67 | 30.27 | E | 0 | 0.00 |
| 23 | 04/13 | 02:00 | 48 | 33 | 57 | 30.28 | S | 0 | 0.00 |
| 24 | 04/13 | 01:00 | 50 | 33 | 53 | 30.29 | SSE | 2 | 0.00 |